createdAt,value
2022-09-23T00:02:00.468Z,9.30
2022-09-23T00:04:49.051Z,9.30
2022-09-23T00:07:37.272Z,9.30
2022-09-23T00:10:25.564Z,9.30
2022-09-23T00:13:13.510Z,9.30
2022-09-23T00:16:05.232Z,9.30
2022-09-23T00:18:53.175Z,9.30
2022-09-23T00:21:41.118Z,9.20
2022-09-23T00:24:32.441Z,9.10
2022-09-23T00:27:21.287Z,9.00
2022-09-23T00:30:13.845Z,9.00
2022-09-23T00:33:03.456Z,9.00
2022-09-23T00:35:51.158Z,8.90
2022-09-23T00:38:40.517Z,8.90
2022-09-23T00:41:28.156Z,8.80
2022-09-23T00:44:34.084Z,8.80
2022-09-23T00:47:23.420Z,8.80
2022-09-23T00:50:16.518Z,8.70
2022-09-23T00:53:07.253Z,8.80
2022-09-23T00:55:57.022Z,8.80
2022-09-23T00:58:46.772Z,8.70
2022-09-23T01:01:34.979Z,8.70
2022-09-23T01:04:23.797Z,8.70
2022-09-23T01:07:13.847Z,8.40
2022-09-23T01:10:02.256Z,8.70
2022-09-23T01:12:55.731Z,8.70
2022-09-23T01:15:48.234Z,8.70
2022-09-23T01:18:40.725Z,8.60
2022-09-23T01:21:39.926Z,8.60
2022-09-23T01:24:42.918Z,8.50
2022-09-23T01:27:51.175Z,8.40
2022-09-23T01:30:44.617Z,8.50
2022-09-23T01:33:36.633Z,8.50
2022-09-23T01:36:25.406Z,8.50
2022-09-23T01:39:14.714Z,8.50
2022-09-23T01:42:05.452Z,8.50
2022-09-23T01:44:56.855Z,8.50
2022-09-23T01:47:49.757Z,8.50
2022-09-23T01:50:59.257Z,8.40
2022-09-23T01:53:49.836Z,8.40
2022-09-23T01:56:38.931Z,8.40
2022-09-23T01:59:30.397Z,8.40
2022-09-23T02:02:26.720Z,8.60
2022-09-23T02:05:18.719Z,10.30
2022-09-23T02:08:07.982Z,8.40
2022-09-23T02:10:57.468Z,8.40
2022-09-23T02:13:46.915Z,8.40
2022-09-23T02:16:39.525Z,8.30
2022-09-23T02:19:29.496Z,8.20
2022-09-23T02:22:22.072Z,8.10
2022-09-23T02:25:10.286Z,7.90
2022-09-23T02:28:01.456Z,8.00
2022-09-23T02:30:53.008Z,7.90
2022-09-23T02:33:45.143Z,8.00
2022-09-23T02:36:37.117Z,8.00
2022-09-23T02:39:31.267Z,7.90
2022-09-23T02:42:23.932Z,8.00
2022-09-23T02:45:11.548Z,8.00
2022-09-23T02:48:04.073Z,8.00
2022-09-23T02:50:51.620Z,8.10
2022-09-23T02:53:40.148Z,7.90
2022-09-23T02:56:29.988Z,7.90
2022-09-23T02:59:19.775Z,7.80
2022-09-23T03:02:15.193Z,7.80
2022-09-23T03:05:06.950Z,7.80
2022-09-23T03:08:01.831Z,7.80
2022-09-23T03:10:54.955Z,7.80
2022-09-23T03:13:51.250Z,7.80
2022-09-23T03:16:43.802Z,7.70
2022-09-23T03:19:34.203Z,7.70
2022-09-23T03:22:24.542Z,7.60
2022-09-23T03:25:16.254Z,7.60
2022-09-23T03:28:03.939Z,7.70
2022-09-23T03:30:54.223Z,7.70
2022-09-23T03:33:44.739Z,7.70
2022-09-23T03:36:53.623Z,7.70
2022-09-23T03:39:43.079Z,7.70
2022-09-23T03:42:32.219Z,7.70
2022-09-23T03:45:23.191Z,7.60
2022-09-23T03:48:13.862Z,7.60
2022-09-23T03:51:05.020Z,7.60
2022-09-23T03:53:52.554Z,7.60
2022-09-23T03:56:39.946Z,7.60
2022-09-23T03:59:27.537Z,7.60
2022-09-23T04:02:16.647Z,7.60
2022-09-23T04:05:06.543Z,7.60
2022-09-23T04:07:55.113Z,7.60
2022-09-23T04:10:42.564Z,7.00
2022-09-23T04:13:30.103Z,7.60
2022-09-23T04:16:20.171Z,7.60
2022-09-23T04:19:11.454Z,7.40
2022-09-23T04:22:00.575Z,7.60
2022-09-23T04:24:48.145Z,7.60
2022-09-23T04:27:40.071Z,7.50
2022-09-23T04:30:28.281Z,7.70
2022-09-23T04:33:16.546Z,7.70
2022-09-23T04:36:04.358Z,7.70
2022-09-23T04:38:53.156Z,7.80
2022-09-23T04:41:40.588Z,7.80
2022-09-23T04:44:29.650Z,7.80
2022-09-23T04:47:19.524Z,7.80
2022-09-23T04:50:08.076Z,7.80
2022-09-23T04:52:55.789Z,7.80
2022-09-23T04:55:44.955Z,7.90
2022-09-23T04:58:33.987Z,7.80
2022-09-23T05:01:25.440Z,7.80
2022-09-23T05:04:15.049Z,7.80
2022-09-23T05:07:04.530Z,7.90
2022-09-23T05:09:53.823Z,7.80
2022-09-23T05:12:42.715Z,7.90
2022-09-23T05:15:30.300Z,7.80
2022-09-23T05:18:20.761Z,7.80
2022-09-23T05:21:09.159Z,7.80
2022-09-23T05:23:59.081Z,7.80
2022-09-23T05:26:46.571Z,7.80
2022-09-23T05:29:35.903Z,7.90
2022-09-23T05:32:23.780Z,7.90
2022-09-23T05:35:11.726Z,7.90
2022-09-23T05:38:00.795Z,8.00
2022-09-23T05:40:48.500Z,8.00
2022-09-23T05:43:38.581Z,8.00
2022-09-23T05:46:29.288Z,8.10
2022-09-23T05:49:17.350Z,8.10
2022-09-23T05:52:04.711Z,8.00
2022-09-23T05:54:52.349Z,8.00
2022-09-23T05:57:40.169Z,8.00
2022-09-23T06:00:27.862Z,7.90
2022-09-23T06:03:17.961Z,8.10
2022-09-23T06:06:08.959Z,6.40
2022-09-23T06:08:56.840Z,8.10
2022-09-23T06:11:44.454Z,8.10
2022-09-23T06:14:31.974Z,8.10
2022-09-23T06:17:19.420Z,8.10
2022-09-23T06:20:09.632Z,8.20
2022-09-23T06:22:58.303Z,8.20
2022-09-23T06:25:46.487Z,8.30
2022-09-23T06:28:35.269Z,8.30
2022-09-23T06:31:22.704Z,8.40
2022-09-23T06:34:13.239Z,8.50
2022-09-23T06:37:12.771Z,8.60
2022-09-23T06:40:05.608Z,8.70
2022-09-23T06:42:58.542Z,8.80
2022-09-23T06:45:47.351Z,9.00
2022-09-23T06:48:35.802Z,9.10
2022-09-23T06:51:23.925Z,9.20
2022-09-23T06:54:13.540Z,9.30
2022-09-23T06:57:01.396Z,9.30
2022-09-23T06:59:49.234Z,9.40
2022-09-23T07:02:37.595Z,9.60
2022-09-23T07:05:25.424Z,9.80
2022-09-23T07:08:13.830Z,9.90
2022-09-23T07:11:04.909Z,10.10
2022-09-23T07:13:52.349Z,10.10
2022-09-23T07:16:39.814Z,10.20
2022-09-23T07:19:28.337Z,10.30
2022-09-23T07:22:15.760Z,10.40
2022-09-23T07:25:03.910Z,10.40
2022-09-23T07:27:53.182Z,10.50
2022-09-23T07:30:54.234Z,10.70
2022-09-23T07:33:45.335Z,10.70
2022-09-23T07:36:33.002Z,10.80
2022-09-23T07:39:20.617Z,10.90
2022-09-23T07:42:08.825Z,11.00
2022-09-23T07:44:58.059Z,11.10
2022-09-23T07:47:46.232Z,11.20
2022-09-23T07:50:34.544Z,11.40
2022-09-23T07:53:21.972Z,11.30
2022-09-23T07:56:09.130Z,11.50
2022-09-23T07:59:04.155Z,11.50
2022-09-23T08:01:54.196Z,11.60
2022-09-23T08:04:42.386Z,11.80
2022-09-23T08:07:29.889Z,11.80
2022-09-23T08:10:19.265Z,12.00
2022-09-23T08:13:08.483Z,12.10
2022-09-23T08:15:55.951Z,12.30
2022-09-23T08:18:46.729Z,12.20
2022-09-23T08:21:34.249Z,12.30
2022-09-23T08:24:24.604Z,12.40
2022-09-23T08:27:13.052Z,12.50
2022-09-23T08:30:01.147Z,12.70
2022-09-23T08:32:51.134Z,12.60
2022-09-23T08:35:41.074Z,12.70
2022-09-23T08:38:28.328Z,12.80
2022-09-23T08:41:21.541Z,12.90
2022-09-23T08:44:13.226Z,13.00
2022-09-23T08:47:05.338Z,13.30
2022-09-23T08:50:00.757Z,13.30
2022-09-23T08:52:52.257Z,13.30
2022-09-23T08:55:43.393Z,13.50
2022-09-23T08:58:39.304Z,13.60
2022-09-23T09:01:29.183Z,13.80
2022-09-23T09:04:18.922Z,14.00
2022-09-23T09:10:24.889Z,14.30
2022-09-23T09:13:25.117Z,14.60
2022-09-23T09:16:27.269Z,14.60
2022-09-23T09:19:33.371Z,14.90
2022-09-23T09:22:25.297Z,15.00
2022-09-23T09:25:19.193Z,15.10
2022-09-23T09:28:15.331Z,15.30
2022-09-23T09:31:12.184Z,15.50
2022-09-23T09:34:03.846Z,15.80
2022-09-23T09:36:55.801Z,15.80
2022-09-23T09:39:46.657Z,15.80
2022-09-23T09:42:39.301Z,15.90
2022-09-23T09:45:38.614Z,16.00
2022-09-23T09:48:32.559Z,16.10
2022-09-23T09:51:21.651Z,16.30
2022-09-23T09:54:23.246Z,16.30
2022-09-23T09:57:17.388Z,16.30
2022-09-23T10:00:19.659Z,15.90
2022-09-23T10:03:24.623Z,16.50
2022-09-23T10:06:21.063Z,16.60
2022-09-23T10:09:14.038Z,16.70
2022-09-23T10:12:13.300Z,16.80
2022-09-23T10:15:04.056Z,16.80
2022-09-23T10:17:52.768Z,16.90
2022-09-23T10:20:42.271Z,16.50
2022-09-23T10:23:33.686Z,16.90
2022-09-23T10:26:28.106Z,17.00
2022-09-23T10:29:22.501Z,17.10
2022-09-23T10:32:21.040Z,17.00
2022-09-23T10:35:15.592Z,17.10
2022-09-23T10:38:07.286Z,17.10
2022-09-23T10:41:12.949Z,17.30
2022-09-23T10:44:30.980Z,17.30
2022-09-23T10:47:24.204Z,17.30
2022-09-23T10:50:16.043Z,17.50
2022-09-23T10:53:10.749Z,18.20
2022-09-23T10:56:05.977Z,17.60
2022-09-23T10:59:00.815Z,17.80
2022-09-23T11:01:52.978Z,18.00
2022-09-23T11:04:56.057Z,18.50
2022-09-23T11:07:48.595Z,18.30
2022-09-23T11:11:00.866Z,18.40
2022-09-23T11:14:06.696Z,18.40
2022-09-23T11:16:59.937Z,18.50
2022-09-23T11:20:00.625Z,18.60
2022-09-23T11:22:53.755Z,18.60
2022-09-23T11:25:50.908Z,18.40
2022-09-23T11:28:49.086Z,18.40
2022-09-23T11:31:39.823Z,18.40
2022-09-23T11:34:52.596Z,18.60
2022-09-23T11:37:48.863Z,18.40
2022-09-23T11:40:41.046Z,17.60
2022-09-23T11:43:35.726Z,18.50
2022-09-23T11:46:29.867Z,18.50
2022-09-23T11:49:20.499Z,17.80
2022-09-23T11:52:19.619Z,18.40
2022-09-23T11:55:17.118Z,18.50
2022-09-23T11:58:23.121Z,18.50
2022-09-23T12:01:15.680Z,18.60
2022-09-23T12:04:18.631Z,18.50
2022-09-23T12:07:12.111Z,18.60
2022-09-23T12:10:03.593Z,18.60
2022-09-23T12:12:56.192Z,18.60
2022-09-23T12:15:50.644Z,18.70
2022-09-23T12:18:45.314Z,18.70
2022-09-23T12:21:52.304Z,18.70
2022-09-23T12:24:49.194Z,18.70
2022-09-23T12:27:39.241Z,18.70
2022-09-23T12:30:28.745Z,18.90
2022-09-23T12:33:21.737Z,18.80
2022-09-23T12:36:10.368Z,18.90
2022-09-23T12:39:03.162Z,19.00
2022-09-23T12:41:55.345Z,19.00
2022-09-23T12:44:44.441Z,19.10
2022-09-23T12:47:39.648Z,19.10
2022-09-23T12:50:46.447Z,19.00
2022-09-23T12:53:52.700Z,19.00
2022-09-23T12:56:58.884Z,19.00
2022-09-23T13:00:16.471Z,18.90
2022-09-23T13:03:21.234Z,18.90
2022-09-23T13:06:27.334Z,18.80
2022-09-23T13:09:17.039Z,18.70
2022-09-23T13:12:07.165Z,18.60
2022-09-23T13:14:56.276Z,18.60
2022-09-23T13:17:45.449Z,18.60
2022-09-23T13:20:38.655Z,18.60
2022-09-23T13:23:27.472Z,18.70
2022-09-23T13:26:16.425Z,18.70
2022-09-23T13:29:05.605Z,18.70
2022-09-23T13:31:53.767Z,18.70
2022-09-23T13:34:44.503Z,18.80
2022-09-23T13:37:40.123Z,18.70
2022-09-23T13:40:31.243Z,18.70
2022-09-23T13:43:22.411Z,18.70
2022-09-23T13:46:12.789Z,18.60
2022-09-23T13:49:00.336Z,18.60
2022-09-23T13:51:49.628Z,18.60
2022-09-23T13:54:47.465Z,18.60
2022-09-23T13:57:36.429Z,18.60
2022-09-23T14:00:25.458Z,18.30
2022-09-23T14:03:20.607Z,18.50
2022-09-23T14:06:10.979Z,18.50
2022-09-23T14:09:04.735Z,18.50
2022-09-23T14:11:55.039Z,18.50
2022-09-23T14:14:43.843Z,18.60
2022-09-23T14:17:33.778Z,18.60
2022-09-23T14:20:23.097Z,18.60
2022-09-23T14:23:12.877Z,18.60
2022-09-23T14:26:03.024Z,18.70
2022-09-23T14:28:50.473Z,18.60
2022-09-23T14:31:39.047Z,18.50
2022-09-23T14:34:40.995Z,18.50
2022-09-23T14:37:48.491Z,18.50
2022-09-23T14:40:38.140Z,18.40
2022-09-23T14:43:31.706Z,19.00
2022-09-23T14:46:20.846Z,18.40
2022-09-23T14:49:17.291Z,18.30
2022-09-23T14:52:07.087Z,18.20
2022-09-23T14:54:54.496Z,18.10
2022-09-23T14:57:43.479Z,16.30
2022-09-23T15:00:33.192Z,18.00
2022-09-23T15:03:22.368Z,17.90
2022-09-23T15:06:10.882Z,17.90
2022-09-23T15:09:01.613Z,17.80
2022-09-23T15:11:49.151Z,17.90
2022-09-23T15:14:39.868Z,17.90
2022-09-23T15:17:32.794Z,17.80
2022-09-23T15:20:23.533Z,17.70
2022-09-23T15:23:32.873Z,17.70
2022-09-23T15:26:21.827Z,17.60
2022-09-23T15:29:09.819Z,17.60
2022-09-23T15:32:00.380Z,17.50
2022-09-23T15:34:51.891Z,17.40
2022-09-23T15:37:39.355Z,17.30
2022-09-23T15:40:27.592Z,17.30
2022-09-23T15:43:21.178Z,17.30
2022-09-23T15:46:11.278Z,17.20
2022-09-23T15:49:01.359Z,17.30
2022-09-23T15:51:52.259Z,17.20
2022-09-23T15:54:39.550Z,17.20
2022-09-23T15:57:27.642Z,17.20
2022-09-23T16:00:21.828Z,17.10
2022-09-23T16:03:14.530Z,17.10
2022-09-23T16:06:04.529Z,17.10
2022-09-23T16:08:53.734Z,16.90
2022-09-23T16:11:45.688Z,16.80
2022-09-23T16:14:34.183Z,16.80
2022-09-23T16:17:22.293Z,16.70
2022-09-23T16:20:15.973Z,16.70
2022-09-23T16:23:06.985Z,16.60
2022-09-23T16:26:00.058Z,16.60
2022-09-23T16:28:48.354Z,16.50
2022-09-23T16:31:36.420Z,16.50
2022-09-23T16:34:24.437Z,16.40
2022-09-23T16:37:13.715Z,16.40
2022-09-23T16:40:02.653Z,16.40
2022-09-23T16:42:52.715Z,16.30
2022-09-23T16:45:40.435Z,16.40
2022-09-23T16:48:30.825Z,16.30
2022-09-23T16:51:20.714Z,16.10
2022-09-23T16:54:10.518Z,16.10
2022-09-23T16:57:00.755Z,16.10
2022-09-23T17:00:08.144Z,17.20
2022-09-23T17:03:24.318Z,16.00
2022-09-23T17:06:12.843Z,15.90
2022-09-23T17:09:01.182Z,16.20
2022-09-23T17:11:51.105Z,15.90
2022-09-23T17:14:38.903Z,15.90
2022-09-23T17:17:28.919Z,15.90
2022-09-23T17:20:16.824Z,15.90
2022-09-23T17:23:05.461Z,15.90
2022-09-23T17:25:55.958Z,15.90
2022-09-23T17:28:44.656Z,16.20
2022-09-23T17:31:32.116Z,16.00
2022-09-23T17:34:24.108Z,16.00
2022-09-23T17:37:12.082Z,16.40
2022-09-23T17:40:03.400Z,16.10
2022-09-23T17:42:53.495Z,16.00
2022-09-23T17:45:42.343Z,15.90
2022-09-23T17:48:33.116Z,15.90
2022-09-23T17:51:23.090Z,16.00
2022-09-23T17:54:12.339Z,15.80
2022-09-23T17:57:00.159Z,15.90
2022-09-23T17:59:50.867Z,15.40
2022-09-23T18:02:38.856Z,15.60
2022-09-23T18:05:26.781Z,16.00
2022-09-23T18:08:15.519Z,15.40
2022-09-23T18:11:11.875Z,15.40
2022-09-23T18:14:04.798Z,15.30
2022-09-23T18:16:53.408Z,15.30
2022-09-23T18:19:41.216Z,15.20
2022-09-23T18:22:28.820Z,15.10
2022-09-23T18:25:38.236Z,15.40
2022-09-23T18:28:34.535Z,15.10
2022-09-23T18:31:22.786Z,15.00
2022-09-23T18:34:12.831Z,14.90
2022-09-23T18:37:00.865Z,15.00
2022-09-23T18:39:50.261Z,14.90
2022-09-23T18:42:50.699Z,14.90
2022-09-23T18:45:38.334Z,14.90
2022-09-23T18:48:44.780Z,14.70
2022-09-23T18:51:34.908Z,14.70
2022-09-23T18:54:23.371Z,14.70
2022-09-23T18:57:11.524Z,14.70
2022-09-23T19:00:01.399Z,14.20
2022-09-23T19:02:49.685Z,12.90
2022-09-23T19:05:38.205Z,14.50
2022-09-23T19:08:26.286Z,14.40
2022-09-23T19:11:14.851Z,14.30
2022-09-23T19:14:03.629Z,15.10
2022-09-23T19:16:52.921Z,14.30
2022-09-23T19:19:43.278Z,13.00
2022-09-23T19:22:38.292Z,14.20
2022-09-23T19:25:27.211Z,14.10
2022-09-23T19:28:17.731Z,13.00
2022-09-23T19:31:11.120Z,14.10
2022-09-23T19:34:01.618Z,14.50
2022-09-23T19:36:50.444Z,14.10
2022-09-23T19:39:40.842Z,14.10
2022-09-23T19:42:30.523Z,14.10
2022-09-23T19:45:20.335Z,14.10
2022-09-23T19:48:10.588Z,14.10
2022-09-23T19:51:01.477Z,14.10
2022-09-23T19:53:51.875Z,14.00
2022-09-23T19:56:41.402Z,14.00
2022-09-23T19:59:33.593Z,14.10
2022-09-23T20:02:21.393Z,13.90
2022-09-23T20:05:11.961Z,13.90
2022-09-23T20:08:02.236Z,13.90
2022-09-23T20:10:50.225Z,14.00
2022-09-23T20:13:39.213Z,13.80
2022-09-23T20:16:29.569Z,13.80
2022-09-23T20:19:20.309Z,13.80
2022-09-23T20:22:30.802Z,13.70
2022-09-23T20:25:24.818Z,13.80
2022-09-23T20:28:12.876Z,13.70
2022-09-23T20:31:01.610Z,13.70
2022-09-23T20:33:51.860Z,13.80
2022-09-23T20:36:41.547Z,13.50
2022-09-23T20:39:29.683Z,13.70
2022-09-23T20:42:20.232Z,13.60
2022-09-23T20:45:09.480Z,13.60
2022-09-23T20:47:59.627Z,13.70
2022-09-23T20:50:48.459Z,11.40
2022-09-23T20:53:36.493Z,13.50
2022-09-23T20:56:25.805Z,13.60
2022-09-23T20:59:18.099Z,13.50
2022-09-23T21:02:09.841Z,13.50
2022-09-23T21:04:57.935Z,13.50
2022-09-23T21:07:47.668Z,13.50
2022-09-23T21:10:36.580Z,13.50
2022-09-23T21:13:28.172Z,13.70
2022-09-23T21:16:20.158Z,13.50
2022-09-23T21:19:08.854Z,13.40
2022-09-23T21:21:57.329Z,13.40
2022-09-23T21:27:59.186Z,13.30
2022-09-23T21:30:51.822Z,13.40
2022-09-23T21:33:41.743Z,13.40
2022-09-23T21:36:37.470Z,13.10
2022-09-23T21:39:28.657Z,13.40
2022-09-23T21:42:19.144Z,13.30
2022-09-23T21:45:09.289Z,13.30
2022-09-23T21:48:03.131Z,13.20
2022-09-23T21:50:57.277Z,13.20
2022-09-23T21:53:46.837Z,13.30
2022-09-23T21:56:38.043Z,13.40
2022-09-23T21:59:26.032Z,13.10
2022-09-23T22:02:13.793Z,13.20
2022-09-23T22:05:02.087Z,13.10
2022-09-23T22:07:52.450Z,13.10
2022-09-23T22:10:41.256Z,13.00
2022-09-23T22:13:28.890Z,13.10
2022-09-23T22:16:17.296Z,13.10
2022-09-23T22:19:07.235Z,13.00
2022-09-23T22:21:59.198Z,12.90
2022-09-23T22:24:48.672Z,13.50
2022-09-23T22:27:56.434Z,13.60
2022-09-23T22:31:02.163Z,13.20
2022-09-23T22:33:51.141Z,13.10
2022-09-23T22:36:39.705Z,13.10
2022-09-23T22:39:28.827Z,13.10
2022-09-23T22:42:19.767Z,13.20
2022-09-23T22:45:09.938Z,13.10
2022-09-23T22:47:58.268Z,13.20
2022-09-23T22:50:46.147Z,13.20
2022-09-23T22:53:33.629Z,11.20
2022-09-23T22:56:24.525Z,13.20
2022-09-23T22:59:16.354Z,13.20
2022-09-23T23:02:06.268Z,13.20
2022-09-23T23:05:01.867Z,13.10
2022-09-23T23:07:50.513Z,13.10
2022-09-23T23:10:41.678Z,13.20
2022-09-23T23:13:32.716Z,13.10
2022-09-23T23:16:25.505Z,13.00
2022-09-23T23:19:14.431Z,13.00
2022-09-23T23:22:02.392Z,13.10
2022-09-23T23:24:54.903Z,13.00
2022-09-23T23:27:42.639Z,13.00
2022-09-23T23:30:30.876Z,13.00
2022-09-23T23:33:20.751Z,13.00
2022-09-23T23:36:10.220Z,13.00
2022-09-23T23:38:57.776Z,13.00
2022-09-23T23:41:45.674Z,13.00
2022-09-23T23:44:35.848Z,12.80
2022-09-23T23:47:26.502Z,12.90
2022-09-23T23:50:15.460Z,12.90
2022-09-23T23:53:05.592Z,12.90
2022-09-23T23:55:53.891Z,12.90
2022-09-23T23:58:45.057Z,12.90
